Terminal Aerodrome Forecast
Issued by NWS

Home | Current Version | Previous Version | Text Only | Print | Product List | Glossary On
Versions: 1 2 3 4 5 6 7 8 9 10 11 12 13
123
FTUS44 KEPZ 240524
TAFTCS
TAF
KTCS 240524Z 2406/2506 23008KT P6SM SCT060 BKN100 BKN200
      TEMPO 2406/2408 VRB20G30KT 6SM -TSRA BKN050CB OVC100
     FM241600 14007KT P6SM FEW050 SCT100 SCT250
     FM241900 21011KT P6SM SCT060 BKN100 BKN200
     FM250400 27007KT P6SM FEW060 SCT100 BKN200=

USA.gov is the U.S. government's official web portal to all federal, state and local government web resources and services.